Аэропорт
Худжанд (UTDL)

 UTDL / LBD
ЗЦ Центральная Азия
Душанбе (UTDD)
Душанбе (UTDD)
 40.21540, 69.69470  / 1450 ft

 UTDL 250830Z 08010MPS 5000 BR NSC 13/08 Q1018 R08/19//60 NOSIG RMK QFE725/0966
 TAF UTDL 250300Z 2504/2516 08007MPS 3100 BR NSC TEMPO 2507/2513 07012MPS
UTDL_aip_1705
показать схемы

2020 © VATRUS division (Privacy Policy)